createdAt,value
2018-08-03T00:00:45.968Z,0.00
2018-08-03T00:01:46.146Z,0.00
2018-08-03T00:02:46.352Z,0.00
2018-08-03T00:03:46.538Z,0.00
2018-08-03T00:04:46.711Z,0.00
2018-08-03T00:05:46.917Z,0.00
2018-08-03T00:06:47.093Z,0.00
2018-08-03T00:07:47.276Z,0.00
2018-08-03T00:08:47.462Z,0.00
2018-08-03T00:09:47.646Z,0.00
2018-08-03T00:10:47.828Z,0.00
2018-08-03T00:11:48.020Z,0.00
2018-08-03T00:12:48.197Z,0.00
2018-08-03T00:13:48.388Z,0.00
2018-08-03T00:14:48.569Z,0.00
2018-08-03T00:15:48.763Z,0.00
2018-08-03T00:16:48.961Z,0.00
2018-08-03T00:17:49.137Z,0.00
2018-08-03T00:18:49.316Z,0.00
2018-08-03T00:19:49.508Z,0.00
2018-08-03T00:20:49.701Z,0.00
2018-08-03T00:21:49.892Z,0.00
2018-08-03T00:22:50.079Z,0.00
2018-08-03T00:23:50.268Z,0.00
2018-08-03T00:24:50.447Z,0.00
2018-08-03T00:25:50.630Z,0.00
2018-08-03T00:26:50.827Z,0.00
2018-08-03T00:27:51.045Z,0.00
2018-08-03T00:28:51.174Z,0.00
2018-08-03T00:31:34.078Z,0.00
2018-08-03T00:32:34.269Z,0.00
2018-08-03T00:33:34.461Z,0.00
2018-08-03T00:34:34.648Z,0.00
2018-08-03T00:35:34.836Z,0.00
2018-08-03T00:36:35.024Z,0.00
2018-08-03T00:37:35.204Z,0.00
2018-08-03T00:38:35.388Z,0.00
2018-08-03T00:39:35.558Z,0.00
2018-08-03T00:40:35.747Z,0.00
2018-08-03T00:41:35.920Z,0.00
2018-08-03T00:42:36.103Z,0.00
2018-08-03T00:43:36.267Z,0.00
2018-08-03T00:44:36.435Z,0.00
2018-08-03T00:45:36.639Z,0.00
2018-08-03T00:46:36.808Z,0.00
2018-08-03T00:47:36.993Z,0.00
2018-08-03T00:48:37.172Z,0.00
2018-08-03T00:49:37.367Z,0.00
2018-08-03T00:50:37.534Z,0.00
2018-08-03T00:51:37.742Z,0.00
2018-08-03T00:52:37.916Z,0.00
2018-08-03T00:53:38.124Z,0.00
2018-08-03T00:54:38.310Z,0.00
2018-08-03T00:55:38.535Z,0.00
2018-08-03T00:56:38.745Z,0.00
2018-08-03T00:57:38.925Z,0.00
2018-08-03T00:58:39.120Z,0.00
2018-08-03T00:59:39.295Z,0.00
2018-08-03T01:00:39.484Z,0.00
2018-08-03T01:01:39.660Z,0.00
2018-08-03T01:02:39.831Z,0.00
2018-08-03T01:03:40.039Z,0.00
2018-08-03T01:04:40.226Z,0.00
2018-08-03T01:05:40.401Z,0.00
2018-08-03T01:06:40.589Z,0.00
2018-08-03T01:07:40.786Z,0.00
2018-08-03T01:08:40.972Z,0.00
2018-08-03T01:09:41.154Z,0.00
2018-08-03T01:10:41.324Z,0.00
2018-08-03T01:11:41.513Z,0.00
2018-08-03T01:12:41.705Z,0.00
2018-08-03T01:13:41.886Z,0.00
2018-08-03T01:14:42.084Z,0.00
2018-08-03T01:15:42.249Z,0.00
2018-08-03T01:16:42.419Z,0.00
2018-08-03T01:17:42.621Z,0.00
2018-08-03T01:18:42.808Z,0.00
2018-08-03T01:19:42.990Z,0.00
2018-08-03T01:20:43.181Z,0.00
2018-08-03T01:21:43.361Z,0.00
2018-08-03T01:22:43.562Z,0.00
2018-08-03T01:23:43.751Z,0.00
2018-08-03T01:24:43.944Z,0.00
2018-08-03T01:25:44.130Z,0.00
2018-08-03T01:26:44.313Z,0.00
2018-08-03T01:27:44.523Z,0.00
2018-08-03T01:28:44.686Z,0.00
2018-08-03T01:29:44.871Z,0.00
2018-08-03T01:30:45.057Z,0.00
2018-08-03T01:31:45.244Z,0.00
2018-08-03T01:32:45.427Z,0.00
2018-08-03T01:33:45.609Z,0.00
2018-08-03T01:34:45.794Z,0.00
2018-08-03T01:35:45.992Z,0.00
2018-08-03T01:36:46.181Z,0.00
2018-08-03T01:37:46.418Z,0.00
2018-08-03T01:38:46.539Z,0.00
2018-08-03T01:39:46.721Z,0.00
2018-08-03T01:40:46.901Z,0.00
2018-08-03T01:41:47.095Z,0.00
2018-08-03T01:42:47.282Z,0.00
2018-08-03T01:43:47.472Z,0.00
2018-08-03T01:44:47.670Z,0.00
2018-08-03T01:45:47.877Z,0.00
2018-08-03T01:46:48.050Z,0.00
2018-08-03T01:47:48.234Z,0.00
2018-08-03T01:48:48.464Z,0.00
2018-08-03T01:49:48.619Z,0.00
2018-08-03T01:50:48.813Z,0.00
2018-08-03T01:51:48.991Z,0.00
2018-08-03T01:52:49.183Z,0.00
2018-08-03T01:53:49.390Z,0.00
2018-08-03T01:54:49.578Z,0.00
2018-08-03T01:55:49.747Z,0.00
2018-08-03T01:58:32.639Z,0.00
2018-08-03T01:59:32.833Z,0.00
2018-08-03T02:00:33.019Z,0.00
2018-08-03T02:01:33.204Z,0.00
2018-08-03T02:02:33.391Z,0.00
2018-08-03T02:03:33.580Z,0.00
2018-08-03T02:04:33.766Z,0.00
2018-08-03T02:05:33.939Z,0.00
2018-08-03T02:06:34.139Z,0.00
2018-08-03T02:07:34.521Z,0.00
2018-08-03T02:08:34.553Z,0.00
2018-08-03T02:09:34.755Z,0.00
2018-08-03T02:10:34.935Z,0.00
2018-08-03T02:13:17.823Z,0.00
2018-08-03T02:14:18.012Z,0.00
2018-08-03T02:15:18.185Z,0.00
2018-08-03T02:16:18.377Z,0.00
2018-08-03T02:17:18.561Z,0.00
2018-08-03T02:18:18.747Z,0.00
2018-08-03T02:19:18.934Z,0.00
2018-08-03T02:20:19.145Z,0.00
2018-08-03T02:21:19.354Z,0.00
2018-08-03T02:22:19.495Z,0.00
2018-08-03T02:23:19.692Z,0.00
2018-08-03T02:24:19.874Z,0.00
2018-08-03T02:25:20.076Z,0.00
2018-08-03T02:26:20.271Z,0.00
2018-08-03T02:27:20.444Z,0.00
2018-08-03T02:28:20.627Z,0.00
2018-08-03T02:29:20.812Z,0.00
2018-08-03T02:30:21.000Z,0.00
2018-08-03T02:31:21.200Z,0.00
2018-08-03T02:32:21.365Z,0.00
2018-08-03T02:33:21.563Z,0.00
2018-08-03T02:34:21.751Z,0.00
2018-08-03T02:35:21.944Z,0.00
2018-08-03T02:36:22.140Z,0.00
2018-08-03T02:37:22.300Z,0.00
2018-08-03T02:38:22.473Z,0.00
2018-08-03T02:39:22.657Z,0.00
2018-08-03T02:40:22.857Z,0.00
2018-08-03T02:41:23.043Z,0.00
2018-08-03T02:42:23.228Z,0.00
2018-08-03T02:43:23.507Z,0.00
2018-08-03T02:44:23.616Z,0.00
2018-08-03T02:45:23.778Z,0.00
2018-08-03T02:46:23.951Z,0.00
2018-08-03T02:47:24.140Z,0.00
2018-08-03T02:48:24.328Z,0.00
2018-08-03T02:49:24.516Z,0.00
2018-08-03T02:50:24.707Z,0.00
2018-08-03T02:51:24.882Z,0.00
2018-08-03T02:52:25.068Z,0.00
2018-08-03T02:53:25.262Z,0.00
2018-08-03T02:54:25.444Z,0.00
2018-08-03T02:55:25.633Z,0.00
2018-08-03T02:56:25.831Z,0.00
2018-08-03T02:57:26.039Z,0.00
2018-08-03T02:58:26.228Z,0.00
2018-08-03T02:59:26.402Z,0.00
2018-08-03T03:00:26.591Z,0.00
2018-08-03T03:01:26.762Z,0.00
2018-08-03T03:02:26.957Z,0.00
2018-08-03T03:03:27.136Z,0.00
2018-08-03T03:04:27.328Z,0.00
2018-08-03T03:05:27.586Z,0.00
2018-08-03T03:06:27.779Z,0.00
2018-08-03T03:07:28.022Z,4.00
2018-08-03T03:08:28.142Z,4.00
2018-08-03T03:09:28.323Z,4.00
2018-08-03T03:10:28.502Z,0.00
2018-08-03T03:11:28.688Z,4.00
2018-08-03T03:12:28.873Z,4.00
2018-08-03T03:13:29.058Z,4.00
2018-08-03T03:14:29.236Z,4.00
2018-08-03T03:15:29.423Z,4.00
2018-08-03T03:16:29.633Z,4.00
2018-08-03T03:17:29.806Z,8.00
2018-08-03T03:18:29.991Z,8.00
2018-08-03T03:19:30.170Z,8.00
2018-08-03T03:20:30.410Z,8.00
2018-08-03T03:21:30.583Z,12.00
2018-08-03T03:22:30.773Z,12.00
2018-08-03T03:23:30.941Z,16.00
2018-08-03T03:24:31.127Z,16.00
2018-08-03T03:25:31.318Z,24.00
2018-08-03T03:26:31.496Z,24.00
2018-08-03T03:27:31.680Z,28.00
2018-08-03T03:28:31.864Z,32.00
2018-08-03T03:29:32.053Z,40.00
2018-08-03T03:30:32.227Z,44.00
2018-08-03T03:31:32.408Z,48.00
2018-08-03T03:32:32.587Z,56.00
2018-08-03T03:33:32.819Z,64.00
2018-08-03T03:34:32.958Z,68.00
2018-08-03T03:35:33.134Z,80.00
2018-08-03T03:36:33.312Z,88.00
2018-08-03T03:37:33.498Z,100.00
2018-08-03T03:38:33.680Z,112.00
2018-08-03T03:39:33.881Z,120.00
2018-08-03T03:40:34.072Z,136.00
2018-08-03T03:41:34.248Z,148.00
2018-08-03T03:44:17.142Z,188.00
2018-08-03T03:45:17.332Z,204.00
2018-08-03T03:46:17.521Z,224.00
2018-08-03T03:47:17.728Z,244.00
2018-08-03T03:48:17.916Z,264.00
2018-08-03T03:49:18.113Z,288.00
2018-08-03T03:50:18.310Z,308.00
2018-08-03T03:51:18.495Z,332.00
2018-08-03T03:52:18.680Z,356.00
2018-08-03T03:53:18.869Z,384.00
2018-08-03T03:54:19.053Z,416.00
2018-08-03T03:55:19.242Z,444.00
2018-08-03T03:56:19.440Z,480.00
2018-08-03T03:57:19.605Z,512.00
2018-08-03T03:58:19.754Z,548.00
2018-08-03T03:59:19.983Z,588.00
2018-08-03T04:00:20.131Z,632.00
2018-08-03T04:01:20.334Z,676.00
2018-08-03T04:02:20.503Z,724.00
2018-08-03T04:03:20.678Z,776.00
2018-08-03T04:04:20.874Z,828.00
2018-08-03T04:05:21.048Z,880.00
2018-08-03T04:06:21.228Z,940.00
2018-08-03T04:07:21.418Z,1000.00
2018-08-03T04:08:21.592Z,1068.00
2018-08-03T04:09:21.783Z,1136.00
2018-08-03T04:10:21.967Z,1208.00
2018-08-03T04:11:22.155Z,1280.00
2018-08-03T04:12:22.373Z,1360.00
2018-08-03T04:13:22.529Z,1436.00
2018-08-03T04:14:22.701Z,1512.00
2018-08-03T04:15:22.893Z,1596.00
2018-08-03T04:16:23.085Z,1680.00
2018-08-03T04:17:23.265Z,1768.00
2018-08-03T04:18:23.446Z,1856.00
2018-08-03T04:19:23.644Z,1948.00
2018-08-03T04:20:23.837Z,2040.00
2018-08-03T04:21:24.013Z,2148.00
2018-08-03T04:22:24.210Z,2272.00
2018-08-03T04:23:24.408Z,2384.00
2018-08-03T04:24:24.573Z,2452.00
2018-08-03T04:25:24.768Z,2568.00
2018-08-03T04:26:24.942Z,2672.00
2018-08-03T04:27:25.135Z,2760.00
2018-08-03T04:28:25.315Z,2884.00
2018-08-03T04:29:25.524Z,2992.00
2018-08-03T04:30:25.689Z,3092.00
2018-08-03T04:31:25.873Z,3212.00
2018-08-03T04:32:26.051Z,3316.00
2018-08-03T04:33:26.239Z,3408.00
2018-08-03T04:34:26.431Z,3520.00
2018-08-03T04:35:26.617Z,3624.00
2018-08-03T04:36:26.807Z,3732.00
2018-08-03T04:37:27.011Z,3832.00
2018-08-03T04:38:27.203Z,3944.00
2018-08-03T04:39:27.390Z,4044.00
2018-08-03T04:40:27.561Z,4164.00
2018-08-03T04:41:27.749Z,4276.00
2018-08-03T04:42:27.966Z,4388.00
2018-08-03T04:43:28.136Z,4492.00
2018-08-03T04:44:28.317Z,4636.00
2018-08-03T04:45:28.491Z,4776.00
2018-08-03T04:46:28.678Z,4880.00
2018-08-03T04:47:28.861Z,4976.00
2018-08-03T04:48:29.041Z,5120.00
2018-08-03T04:49:29.218Z,5280.00
2018-08-03T04:50:29.419Z,6152.00
2018-08-03T04:51:29.608Z,8148.00
2018-08-03T04:52:29.780Z,12288.00
2018-08-03T04:53:29.958Z,17984.00
2018-08-03T04:54:30.146Z,20544.00
2018-08-03T04:55:30.327Z,20736.00
2018-08-03T04:56:30.499Z,21792.00
2018-08-03T04:57:30.684Z,21952.00
2018-08-03T04:58:30.856Z,22240.00
2018-08-03T04:59:31.072Z,22432.00
2018-08-03T05:00:31.257Z,23584.00
2018-08-03T05:01:31.457Z,25024.00
2018-08-03T05:02:31.645Z,25472.00
2018-08-03T05:03:31.837Z,26432.00
2018-08-03T05:04:32.019Z,27520.00
2018-08-03T05:05:32.191Z,27648.00
2018-08-03T05:06:32.377Z,28576.00
2018-08-03T05:07:32.562Z,29152.00
2018-08-03T05:08:32.757Z,29760.00
2018-08-03T05:09:32.953Z,30880.00
2018-08-03T05:10:33.127Z,31456.00
2018-08-03T05:11:33.329Z,32128.00
2018-08-03T05:12:33.517Z,32832.00
2018-08-03T05:13:33.734Z,32896.00
2018-08-03T05:14:33.917Z,33504.00
2018-08-03T05:15:34.162Z,34464.00
2018-08-03T05:16:34.335Z,35008.00
2018-08-03T05:17:34.472Z,35360.00
2018-08-03T05:18:34.677Z,37536.00
2018-08-03T05:19:34.876Z,38880.00
2018-08-03T05:20:35.076Z,39264.00
2018-08-03T05:21:35.245Z,39968.00
2018-08-03T05:22:35.442Z,40960.00
2018-08-03T05:23:35.637Z,40256.00
2018-08-03T05:24:35.820Z,40672.00
2018-08-03T05:25:36.012Z,41440.00
2018-08-03T05:26:36.215Z,42304.00
2018-08-03T05:27:36.422Z,41952.00
2018-08-03T05:28:36.609Z,42784.00
2018-08-03T05:29:36.797Z,43840.00
2018-08-03T05:30:37.022Z,45536.00
2018-08-03T05:31:37.176Z,47936.00
2018-08-03T05:32:37.358Z,49024.00
2018-08-03T05:33:37.568Z,50496.00
2018-08-03T05:34:37.754Z,52128.00
2018-08-03T05:35:38.017Z,54592.00
2018-08-03T05:36:38.211Z,56288.00
2018-08-03T05:37:38.411Z,56864.00
2018-08-03T05:38:38.633Z,56512.00
2018-08-03T05:39:38.795Z,56736.00
2018-08-03T05:40:38.994Z,55872.00
2018-08-03T05:41:39.187Z,54912.00
2018-08-03T05:42:39.442Z,54336.00
2018-08-03T05:43:39.601Z,55904.00
2018-08-03T05:44:39.805Z,57952.00
2018-08-03T05:45:39.987Z,60320.00
2018-08-03T05:46:40.210Z,61856.00
2018-08-03T05:47:40.408Z,61664.00
2018-08-03T05:48:40.608Z,61888.00
2018-08-03T05:49:40.812Z,61280.00
2018-08-03T05:50:41.019Z,61120.00
2018-08-03T05:51:41.208Z,62336.00
2018-08-03T05:52:41.408Z,62400.00
2018-08-03T05:53:41.649Z,63168.00
2018-08-03T05:54:41.861Z,65248.00
2018-08-03T05:55:42.050Z,66304.00
2018-08-03T05:56:42.264Z,66496.00
2018-08-03T05:57:42.469Z,66240.00
2018-08-03T05:58:42.687Z,66944.00
2018-08-03T05:59:42.891Z,67744.00
2018-08-03T06:00:43.081Z,68480.00
2018-08-03T06:01:43.290Z,70240.00
2018-08-03T06:02:43.481Z,70688.00
2018-08-03T06:03:43.682Z,70880.00
2018-08-03T06:04:43.868Z,72768.00
2018-08-03T06:05:44.062Z,74944.00
2018-08-03T06:06:44.248Z,77568.00
2018-08-03T06:07:44.454Z,80480.00
2018-08-03T06:08:44.670Z,79904.00
2018-08-03T06:09:44.922Z,77952.00
2018-08-03T06:10:45.067Z,75072.00
2018-08-03T06:11:45.260Z,72832.00
2018-08-03T06:12:45.451Z,72864.00
2018-08-03T06:13:45.637Z,76256.00
2018-08-03T06:14:45.836Z,77312.00
2018-08-03T06:15:46.032Z,76256.00
2018-08-03T06:16:46.253Z,76736.00
2018-08-03T06:17:46.437Z,77632.00
2018-08-03T06:18:46.638Z,76256.00
2018-08-03T06:19:46.828Z,78464.00
2018-08-03T06:20:47.149Z,76544.00
2018-08-03T06:21:47.241Z,77856.00
2018-08-03T06:22:47.438Z,79360.00
2018-08-03T06:23:47.645Z,80128.00
2018-08-03T06:24:47.852Z,80352.00
2018-08-03T06:25:48.027Z,80128.00
2018-08-03T06:26:48.244Z,79680.00
2018-08-03T06:27:48.442Z,79264.00
2018-08-03T06:28:48.615Z,79616.00
2018-08-03T06:29:48.899Z,80160.00
2018-08-03T06:30:49.019Z,82752.00
2018-08-03T06:31:49.224Z,84736.00
2018-08-03T06:32:49.420Z,85088.00
2018-08-03T06:33:49.615Z,85056.00
2018-08-03T06:34:49.807Z,83200.00
2018-08-03T06:35:49.995Z,83904.00
2018-08-03T06:36:50.190Z,85696.00
2018-08-03T06:37:50.396Z,85280.00
2018-08-03T06:38:50.600Z,77248.00
2018-08-03T06:39:50.798Z,68672.00
2018-08-03T06:40:50.992Z,65952.00
2018-08-03T06:41:51.180Z,63136.00
2018-08-03T06:42:51.398Z,70816.00
2018-08-03T06:43:51.583Z,74240.00
2018-08-03T06:44:51.802Z,74528.00
2018-08-03T06:45:51.989Z,77152.00
2018-08-03T06:46:52.189Z,74624.00
2018-08-03T06:47:52.378Z,73216.00
2018-08-03T06:48:52.573Z,72640.00
2018-08-03T06:49:52.793Z,75168.00
2018-08-03T06:50:52.980Z,79168.00
2018-08-03T06:51:53.179Z,79584.00
2018-08-03T06:52:53.380Z,82464.00
2018-08-03T06:53:53.650Z,80992.00
2018-08-03T06:54:54.616Z,81888.00
2018-08-03T06:55:53.977Z,81792.00
2018-08-03T06:56:54.176Z,84544.00
2018-08-03T06:57:54.383Z,86784.00
2018-08-03T06:58:54.594Z,82368.00
2018-08-03T06:59:54.803Z,77280.00
2018-08-03T07:00:55.030Z,75200.00
2018-08-03T07:01:55.220Z,74720.00
2018-08-03T07:02:55.486Z,82368.00
2018-08-03T07:03:55.603Z,86144.00
2018-08-03T07:04:55.833Z,87936.00
2018-08-03T07:05:55.999Z,88128.00
2018-08-03T07:06:56.189Z,85824.00
2018-08-03T07:07:56.386Z,85664.00
2018-08-03T07:08:56.583Z,85120.00
2018-08-03T07:09:56.782Z,86368.00
2018-08-03T07:10:56.982Z,85696.00
2018-08-03T07:11:57.177Z,84064.00
2018-08-03T07:12:57.364Z,81984.00
2018-08-03T07:13:57.567Z,80704.00
2018-08-03T07:14:57.815Z,80224.00
2018-08-03T07:15:57.942Z,79648.00
2018-08-03T07:16:58.161Z,80160.00
2018-08-03T07:17:58.337Z,79136.00
2018-08-03T07:18:58.546Z,79328.00
2018-08-03T07:19:58.764Z,80128.00
2018-08-03T07:20:58.935Z,80992.00
2018-08-03T07:21:59.136Z,81760.00
2018-08-03T07:22:59.347Z,82400.00
2018-08-03T07:23:59.524Z,84704.00
2018-08-03T07:24:59.714Z,86688.00
2018-08-03T07:26:00.008Z,86816.00
2018-08-03T07:27:00.117Z,87008.00
2018-08-03T07:28:00.324Z,83584.00
2018-08-03T07:29:00.519Z,79648.00
2018-08-03T07:30:00.729Z,82528.00
2018-08-03T07:31:00.915Z,89408.00
2018-08-03T07:32:01.124Z,91680.00
2018-08-03T07:33:01.325Z,88928.00
2018-08-03T07:34:01.510Z,88512.00
2018-08-03T07:35:01.711Z,89536.00
2018-08-03T07:36:01.924Z,88000.00
2018-08-03T07:37:02.174Z,87744.00
2018-08-03T07:38:02.305Z,87776.00
2018-08-03T07:39:02.502Z,88320.00
2018-08-03T07:40:02.794Z,86240.00
2018-08-03T07:41:02.916Z,84864.00
2018-08-03T07:42:03.128Z,84256.00
2018-08-03T07:43:03.354Z,85280.00
2018-08-03T07:44:03.532Z,85312.00
2018-08-03T07:45:03.799Z,84704.00
2018-08-03T07:46:03.921Z,81888.00
2018-08-03T07:47:04.105Z,81472.00
2018-08-03T07:48:04.339Z,82624.00
2018-08-03T07:49:04.536Z,83648.00
2018-08-03T07:50:04.731Z,84320.00
2018-08-03T07:51:04.922Z,82336.00
2018-08-03T07:52:05.122Z,82464.00
2018-08-03T07:53:05.323Z,85792.00
2018-08-03T07:54:05.562Z,89152.00
2018-08-03T07:55:05.778Z,91008.00
2018-08-03T07:56:05.970Z,89568.00
2018-08-03T07:57:06.191Z,81568.00
2018-08-03T07:58:06.347Z,71456.00
2018-08-03T07:59:06.559Z,64928.00
2018-08-03T08:00:06.764Z,69024.00
2018-08-03T08:01:06.949Z,80960.00
2018-08-03T08:02:07.159Z,85952.00
2018-08-03T08:03:07.374Z,84736.00
2018-08-03T08:04:07.551Z,83424.00
2018-08-03T08:05:09.287Z,84736.00
2018-08-03T08:06:07.882Z,88512.00
2018-08-03T08:07:08.077Z,87040.00
2018-08-03T08:08:08.277Z,86080.00
2018-08-03T08:09:08.475Z,85792.00
2018-08-03T08:10:08.665Z,83936.00
2018-08-03T08:11:08.857Z,82976.00
2018-08-03T08:12:09.064Z,72448.00
2018-08-03T08:13:09.279Z,43424.00
2018-08-03T08:14:09.481Z,23968.00
2018-08-03T08:15:09.715Z,20800.00
2018-08-03T08:16:09.877Z,20480.00
2018-08-03T08:17:10.063Z,20320.00
2018-08-03T08:18:10.259Z,20192.00
2018-08-03T08:19:10.448Z,19520.00
2018-08-03T08:20:10.645Z,18752.00
2018-08-03T08:21:10.844Z,18720.00
2018-08-03T08:22:11.042Z,18336.00
2018-08-03T08:23:11.246Z,17984.00
2018-08-03T08:24:11.446Z,17984.00
2018-08-03T08:25:11.647Z,17792.00
2018-08-03T08:26:11.874Z,17632.00
2018-08-03T08:27:12.044Z,17440.00
2018-08-03T08:28:12.246Z,17280.00
2018-08-03T08:29:12.441Z,17248.00
2018-08-03T08:30:12.628Z,17216.00
2018-08-03T08:31:12.849Z,17312.00
2018-08-03T08:32:13.070Z,17312.00
2018-08-03T08:33:13.291Z,17472.00
2018-08-03T08:34:13.480Z,17504.00
2018-08-03T08:35:13.690Z,17440.00
2018-08-03T08:36:13.851Z,17504.00
2018-08-03T08:37:14.054Z,17536.00
2018-08-03T08:38:14.261Z,17632.00
2018-08-03T08:39:14.465Z,17728.00
2018-08-03T08:40:14.661Z,17920.00
2018-08-03T08:41:14.858Z,18176.00
2018-08-03T08:42:15.049Z,18464.00
2018-08-03T08:43:15.254Z,18720.00
2018-08-03T08:44:15.451Z,19392.00
2018-08-03T08:45:15.673Z,21696.00
2018-08-03T08:46:15.861Z,25408.00
2018-08-03T08:47:16.045Z,26496.00
2018-08-03T08:48:16.272Z,25024.00
2018-08-03T08:49:16.507Z,23552.00
2018-08-03T08:50:16.681Z,25408.00
2018-08-03T08:51:16.873Z,29024.00
2018-08-03T08:52:17.064Z,33280.00
2018-08-03T08:53:17.331Z,36128.00
2018-08-03T08:54:17.457Z,35584.00
2018-08-03T08:55:17.656Z,32832.00
2018-08-03T08:56:17.852Z,33216.00
2018-08-03T08:57:18.051Z,33792.00
2018-08-03T08:58:18.257Z,35488.00
2018-08-03T08:59:18.463Z,36576.00
2018-08-03T09:00:18.649Z,39424.00
2018-08-03T09:01:18.894Z,43264.00
2018-08-03T09:02:19.058Z,46048.00
2018-08-03T09:03:19.255Z,44352.00
2018-08-03T09:04:19.468Z,43360.00
2018-08-03T09:05:19.651Z,46144.00
2018-08-03T09:06:19.856Z,47744.00
2018-08-03T09:09:02.788Z,37152.00
2018-08-03T09:10:02.977Z,39072.00
2018-08-03T09:11:03.181Z,20608.00
2018-08-03T09:12:03.377Z,12608.00
2018-08-03T09:13:03.629Z,13384.00
2018-08-03T09:14:03.775Z,15872.00
2018-08-03T09:15:03.973Z,18656.00
2018-08-03T09:16:04.180Z,17056.00
2018-08-03T09:17:04.379Z,17312.00
2018-08-03T09:18:04.598Z,10504.00
2018-08-03T09:19:04.787Z,11740.00
2018-08-03T09:20:04.991Z,12624.00
2018-08-03T09:21:05.193Z,14156.00
2018-08-03T09:22:05.396Z,14044.00
2018-08-03T09:23:05.585Z,13280.00
2018-08-03T09:24:05.781Z,13724.00
2018-08-03T09:25:05.987Z,13608.00
2018-08-03T09:26:06.194Z,12956.00
2018-08-03T09:27:06.382Z,12440.00
2018-08-03T09:28:06.592Z,11632.00
2018-08-03T09:29:06.759Z,11600.00
2018-08-03T09:30:06.968Z,11392.00
2018-08-03T09:31:07.276Z,11480.00
2018-08-03T09:32:07.337Z,11608.00
2018-08-03T09:33:07.534Z,11064.00
2018-08-03T09:34:07.729Z,11644.00
2018-08-03T09:35:07.930Z,11400.00
2018-08-03T09:36:08.132Z,11076.00
2018-08-03T09:37:08.345Z,11008.00
2018-08-03T09:38:08.519Z,11968.00
2018-08-03T09:39:08.714Z,10804.00
2018-08-03T09:40:08.900Z,10844.00
2018-08-03T09:41:09.080Z,10824.00
2018-08-03T09:42:09.280Z,10440.00
2018-08-03T09:43:09.475Z,11024.00
2018-08-03T09:44:09.646Z,11592.00
2018-08-03T09:45:09.843Z,11788.00
2018-08-03T09:46:10.031Z,9992.00
2018-08-03T09:47:10.224Z,10540.00
2018-08-03T09:48:10.419Z,9828.00
2018-08-03T09:49:11.753Z,6284.00
2018-08-03T09:50:10.799Z,6620.00
2018-08-03T09:51:10.995Z,7060.00
2018-08-03T09:52:11.193Z,9020.00
2018-08-03T09:53:11.389Z,9212.00
2018-08-03T09:54:11.581Z,8508.00
2018-08-03T09:55:11.802Z,6716.00
2018-08-03T09:56:11.996Z,6408.00
2018-08-03T09:57:12.205Z,6236.00
2018-08-03T09:58:12.361Z,6144.00
2018-08-03T09:59:12.565Z,6972.00
2018-08-03T10:00:12.755Z,6248.00
2018-08-03T10:01:12.941Z,6328.00
2018-08-03T10:02:13.145Z,6372.00
2018-08-03T10:03:13.358Z,6296.00
2018-08-03T10:04:13.569Z,6256.00
2018-08-03T10:05:13.761Z,6208.00
2018-08-03T10:06:13.958Z,6580.00
2018-08-03T10:07:14.151Z,7684.00
2018-08-03T10:08:14.324Z,6872.00
2018-08-03T10:09:14.515Z,6584.00
2018-08-03T10:10:14.710Z,6268.00
2018-08-03T10:11:14.909Z,6044.00
2018-08-03T10:12:15.106Z,6076.00
2018-08-03T10:13:15.297Z,7056.00
2018-08-03T10:14:15.488Z,6936.00
2018-08-03T10:15:15.708Z,6948.00
2018-08-03T10:16:15.860Z,7076.00
2018-08-03T10:17:16.049Z,7124.00
2018-08-03T10:18:16.241Z,7344.00
2018-08-03T10:19:16.439Z,7452.00
2018-08-03T10:20:16.634Z,7636.00
2018-08-03T10:21:16.814Z,7308.00
2018-08-03T10:22:17.079Z,6516.00
2018-08-03T10:23:17.218Z,5556.00
2018-08-03T10:24:17.416Z,5056.00
2018-08-03T10:25:17.604Z,4816.00
2018-08-03T10:26:17.806Z,4820.00
2018-08-03T10:27:17.998Z,4988.00
2018-08-03T10:28:18.183Z,5256.00
2018-08-03T10:29:18.375Z,5692.00
2018-08-03T10:30:18.560Z,7136.00
2018-08-03T10:31:18.770Z,7184.00
2018-08-03T10:32:18.949Z,7232.00
2018-08-03T10:33:19.124Z,7348.00
2018-08-03T10:34:19.319Z,7560.00
2018-08-03T10:35:19.507Z,7608.00
2018-08-03T10:36:19.694Z,7432.00
2018-08-03T10:37:19.886Z,7176.00
2018-08-03T10:38:20.127Z,7136.00
2018-08-03T10:39:20.259Z,6920.00
2018-08-03T10:40:20.465Z,5732.00
2018-08-03T10:41:20.656Z,5688.00
2018-08-03T10:42:20.859Z,6296.00
2018-08-03T10:43:21.044Z,5216.00
2018-08-03T10:44:21.243Z,5016.00
2018-08-03T10:45:21.426Z,6152.00
2018-08-03T10:46:21.608Z,5840.00
2018-08-03T10:47:21.804Z,5728.00
2018-08-03T10:48:22.007Z,4760.00
2018-08-03T10:49:22.192Z,4708.00
2018-08-03T10:50:22.378Z,4716.00
2018-08-03T10:51:22.618Z,5112.00
2018-08-03T10:52:22.774Z,6448.00
2018-08-03T10:53:22.967Z,6672.00
2018-08-03T10:54:23.149Z,6648.00
2018-08-03T10:57:08.535Z,6408.00
2018-08-03T10:58:06.236Z,6132.00
2018-08-03T10:59:06.435Z,5864.00
2018-08-03T11:00:06.627Z,5356.00
2018-08-03T11:01:06.813Z,4440.00
2018-08-03T11:02:07.012Z,4320.00
2018-08-03T11:03:07.222Z,4616.00
2018-08-03T11:04:07.400Z,4456.00
2018-08-03T11:05:07.600Z,4508.00
2018-08-03T11:06:07.773Z,4660.00
2018-08-03T11:07:08.001Z,5416.00
2018-08-03T11:08:08.151Z,5712.00
2018-08-03T11:09:08.347Z,5692.00
2018-08-03T11:10:08.538Z,5364.00
2018-08-03T11:11:08.722Z,5140.00
2018-08-03T11:12:08.925Z,5280.00
2018-08-03T11:13:09.148Z,5224.00
2018-08-03T11:14:09.333Z,5208.00
2018-08-03T11:15:09.516Z,5256.00
2018-08-03T11:16:09.704Z,5248.00
2018-08-03T11:17:09.889Z,5256.00
2018-08-03T11:18:10.073Z,5216.00
2018-08-03T11:19:10.292Z,5160.00
2018-08-03T11:20:10.494Z,5092.00
2018-08-03T11:21:10.669Z,5108.00
2018-08-03T11:22:10.871Z,5124.00
2018-08-03T11:23:11.065Z,5496.00
2018-08-03T11:24:11.293Z,5224.00
2018-08-03T11:25:11.455Z,5496.00
2018-08-03T11:26:11.647Z,5364.00
2018-08-03T11:27:11.843Z,5716.00
2018-08-03T11:28:12.039Z,5680.00
2018-08-03T11:29:12.247Z,5736.00
2018-08-03T11:30:12.452Z,5708.00
2018-08-03T11:31:12.634Z,5692.00
2018-08-03T11:32:12.845Z,5668.00
2018-08-03T11:33:13.334Z,5428.00
2018-08-03T11:34:13.170Z,5432.00
2018-08-03T11:35:13.403Z,5444.00
2018-08-03T11:36:13.544Z,5512.00
2018-08-03T11:37:13.793Z,5424.00
2018-08-03T11:38:13.943Z,5252.00
2018-08-03T11:39:14.143Z,5168.00
2018-08-03T11:40:14.326Z,5164.00
2018-08-03T11:41:14.540Z,5244.00
2018-08-03T11:42:14.736Z,5612.00
2018-08-03T11:43:14.953Z,5884.00
2018-08-03T11:44:15.149Z,6076.00
2018-08-03T11:45:15.323Z,6088.00
2018-08-03T11:46:15.517Z,5880.00
2018-08-03T11:47:15.719Z,5548.00
2018-08-03T11:48:15.927Z,5416.00
2018-08-03T11:49:16.110Z,4968.00
2018-08-03T11:50:16.307Z,5000.00
2018-08-03T11:51:16.498Z,4868.00
2018-08-03T11:52:16.693Z,4680.00
2018-08-03T11:53:16.888Z,4708.00
2018-08-03T11:54:17.076Z,4660.00
2018-08-03T11:55:17.267Z,4596.00
2018-08-03T11:56:17.458Z,4572.00
2018-08-03T11:57:17.662Z,4556.00
2018-08-03T11:58:17.895Z,4528.00
2018-08-03T11:59:18.080Z,4632.00
2018-08-03T12:00:18.293Z,4704.00
2018-08-03T12:01:18.487Z,4720.00
2018-08-03T12:02:18.674Z,4764.00
2018-08-03T12:03:18.857Z,4736.00
2018-08-03T12:04:19.072Z,4724.00
2018-08-03T12:05:19.249Z,4728.00
2018-08-03T12:06:19.453Z,4752.00
2018-08-03T12:07:19.647Z,4644.00
2018-08-03T12:08:19.855Z,4720.00
2018-08-03T12:09:20.028Z,4760.00
2018-08-03T12:10:20.239Z,4668.00
2018-08-03T12:11:20.430Z,4476.00
2018-08-03T12:12:20.648Z,4420.00
2018-08-03T12:13:20.855Z,4392.00
2018-08-03T12:14:21.021Z,4428.00
2018-08-03T12:15:21.213Z,4424.00
2018-08-03T12:16:21.403Z,4320.00
2018-08-03T12:17:21.612Z,4288.00
2018-08-03T12:18:21.805Z,3412.00
2018-08-03T12:19:22.001Z,3764.00
2018-08-03T12:20:22.185Z,3240.00
2018-08-03T12:21:22.380Z,3836.00
2018-08-03T12:22:22.568Z,4140.00
2018-08-03T12:23:22.771Z,4208.00
2018-08-03T12:24:22.956Z,4352.00
2018-08-03T12:25:23.139Z,4416.00
2018-08-03T12:26:23.355Z,4528.00
2018-08-03T12:27:23.535Z,4556.00
2018-08-03T12:28:23.747Z,4588.00
2018-08-03T12:29:23.967Z,4516.00